PWSweather.com
Personal Weather Stations
Station Observations
IHTIMAN1
Neighbourhood 1, IhtimanBG 2050

Neighbourhood 1IhtimanBG 2050

Lat: 42.436852, Lon: 23.817921

Elevation: 2066

Station Type: Oregon Scientific WMR968

http://ihtiman-meteo.com

High Low Average
Temperature 69.3°F20.7°C 52.9°F11.6°C 58.9°F14.9°C
Dew Point 56.0°F13.3°C 44.6°F7.0°C 50.1°F10.1°C
Winds 12.7 mph 20.4 kmh Calm Calm 5.0 mph SW8.0 kmh SW
Wind Gusts 20.7 mph33.3 kmh -- 8.0 mph12.9 kmh
Humidity 98% 49% 75%
Pressure 29.88 in1011.9 mb 29.80 in1009.1 mb -
Precipitation 0.05 in1.3 mm - -
Hour Temp Dew Point Humidity Winds Wind Gusts Pressure Precip Precip Rate Daily Precip Total
12:00 AM 54.8°F12.7°C 54.3°F12.4°C 98% Calm Calm -- 29.88 in1011.9 mb - 0.00 in0.0 mm 0.00 in0.0 mm
12:10 AM 54.9°F12.7°C 54.3°F12.4°C 98% Calm Calm -- 29.88 in1011.9 mb - 0.00 in0.0 mm 0.00 in0.0 mm
12:20 AM 54.9°F12.7°C 54.3°F12.4°C 98% Calm Calm -- 29.88 in1011.9 mb - 0.00 in0.0 mm 0.00 in0.0 mm
12:30 AM 54.9°F12.7°C 54.3°F12.4°C 98% Calm Calm -- 29.88 in1011.9 mb - 0.00 in0.0 mm 0.00 in0.0 mm
12:40 AM 54.9°F12.7°C 54.3°F12.4°C 98% Calm Calm -- 29.88 in1011.9 mb - 0.00 in0.0 mm 0.00 in0.0 mm
12:50 AM 54.7°F12.6°C 54.1°F12.3°C 98% Calm Calm -- 29.88 in1011.9 mb - 0.05 in1.3 mm 0.05 in1.3 mm
01:00 AM 54.6°F12.6°C 54.0°F12.2°C 98% Calm Calm -- 29.88 in1011.9 mb - 0.05 in1.3 mm 0.05 in1.3 mm
01:10 AM 54.5°F12.5°C 53.9°F12.2°C 98% Calm Calm -- 29.88 in1011.9 mb - 0.05 in1.3 mm 0.05 in1.3 mm
01:20 AM 54.5°F12.5°C 53.9°F12.2°C 98% Calm Calm -- 29.88 in1011.9 mb - 0.05 in1.3 mm 0.05 in1.3 mm
01:30 AM 54.5°F12.5°C 53.9°F12.2°C 98% Calm Calm -- 29.86 in1011.2 mb - 0.05 in1.3 mm 0.05 in1.3 mm
01:40 AM 54.5°F12.5°C 53.9°F12.2°C 98% Calm Calm -- 29.86 in1011.2 mb - 0.05 in1.3 mm 0.05 in1.3 mm
01:50 AM 54.5°F12.5°C 53.9°F12.2°C 98% Calm Calm -- 29.86 in1011.2 mb - 0.00 in0.0 mm 0.05 in1.3 mm
02:00 AM 54.5°F12.5°C 53.9°F12.2°C 98% Calm Calm -- 29.86 in1011.2 mb - 0.00 in0.0 mm 0.05 in1.3 mm
02:10 AM 54.3°F12.4°C 53.8°F12.1°C 98% Calm Calm -- 29.86 in1011.2 mb - 0.00 in0.0 mm 0.05 in1.3 mm
02:20 AM 54.3°F12.4°C 53.8°F12.1°C 98% Calm Calm -- 29.86 in1011.2 mb - 0.00 in0.0 mm 0.05 in1.3 mm
02:30 AM 54.1°F12.3°C 53.6°F12.0°C 98% Calm Calm -- 29.86 in1011.2 mb - 0.00 in0.0 mm 0.05 in1.3 mm
02:40 AM 54.1°F12.3°C 53.6°F12.0°C 98% Calm Calm -- 29.86 in1011.2 mb - 0.00 in0.0 mm 0.05 in1.3 mm
02:50 AM 54.1°F12.3°C 53.6°F12.0°C 98% Calm Calm -- 29.86 in1011.2 mb - 0.00 in0.0 mm 0.05 in1.3 mm
03:00 AM 54.3°F12.4°C 53.8°F12.1°C 98% Calm Calm -- 29.86 in1011.2 mb - 0.00 in0.0 mm 0.05 in1.3 mm
03:10 AM 54.3°F12.4°C 53.8°F12.1°C 98% Calm Calm -- 29.86 in1011.2 mb - 0.00 in0.0 mm 0.05 in1.3 mm
03:20 AM 54.3°F12.4°C 53.8°F12.1°C 98% Calm Calm -- 29.86 in1011.2 mb - 0.00 in0.0 mm 0.05 in1.3 mm
03:30 AM 54.3°F12.4°C 53.8°F12.1°C 98% Calm Calm -- 29.82 in1009.8 mb - 0.00 in0.0 mm 0.05 in1.3 mm
03:40 AM 54.5°F12.5°C 53.9°F12.2°C 98% Calm Calm -- 29.82 in1009.8 mb - 0.00 in0.0 mm 0.05 in1.3 mm
03:50 AM 54.3°F12.4°C 53.8°F12.1°C 98% Calm Calm -- 29.82 in1009.8 mb - 0.00 in0.0 mm 0.05 in1.3 mm
04:00 AM 54.1°F12.3°C 53.6°F12.0°C 98% Calm Calm -- 29.82 in1009.8 mb - 0.00 in0.0 mm 0.05 in1.3 mm
04:10 AM 54.0°F12.2°C 53.4°F11.9°C 98% Calm Calm -- 29.82 in1009.8 mb - 0.00 in0.0 mm 0.05 in1.3 mm
04:20 AM 53.6°F12.0°C 53.0°F11.7°C 98% Calm Calm -- 29.82 in1009.8 mb - 0.00 in0.0 mm 0.05 in1.3 mm
04:30 AM 53.2°F11.8°C 52.7°F11.5°C 98% Calm Calm -- 29.82 in1009.8 mb - 0.00 in0.0 mm 0.05 in1.3 mm
04:40 AM 53.1°F11.7°C 52.5°F11.4°C 98% Calm Calm -- 29.82 in1009.8 mb - 0.00 in0.0 mm 0.05 in1.3 mm
04:50 AM 53.1°F11.7°C 52.5°F11.4°C 98% Calm Calm -- 29.82 in1009.8 mb - 0.00 in0.0 mm 0.05 in1.3 mm
05:00 AM 53.1°F11.7°C 52.5°F11.4°C 98% Calm Calm -- 29.82 in1009.8 mb - 0.00 in0.0 mm 0.05 in1.3 mm
05:10 AM 53.1°F11.7°C 52.5°F11.4°C 98% Calm Calm -- 29.82 in1009.8 mb - 0.00 in0.0 mm 0.05 in1.3 mm
05:20 AM 53.1°F11.7°C 52.5°F11.4°C 98% 3.5 mph NNW5.6 kmh NNW 3.5 mph5.6 kmh 29.82 in1009.8 mb - 0.00 in0.0 mm 0.05 in1.3 mm
05:30 AM 53.1°F11.7°C 52.5°F11.4°C 98% 2.3 mph N3.7 kmh N 3.5 mph5.6 kmh 29.82 in1009.8 mb - 0.00 in0.0 mm 0.05 in1.3 mm
05:40 AM 53.1°F11.7°C 52.5°F11.4°C 98% 1.2 mph NNW1.9 kmh NNW 3.5 mph5.6 kmh 29.82 in1009.8 mb - 0.00 in0.0 mm 0.05 in1.3 mm
05:50 AM 53.1°F11.7°C 52.5°F11.4°C 98% 2.3 mph N3.7 kmh N 3.5 mph5.6 kmh 29.82 in1009.8 mb - 0.00 in0.0 mm 0.05 in1.3 mm
06:00 AM 53.1°F11.7°C 52.5°F11.4°C 98% 4.6 mph N7.4 kmh N 5.8 mph9.3 kmh 29.82 in1009.8 mb - 0.00 in0.0 mm 0.05 in1.3 mm
06:10 AM 53.1°F11.7°C 52.5°F11.4°C 98% 4.6 mph N7.4 kmh N 5.8 mph9.3 kmh 29.82 in1009.8 mb - 0.00 in0.0 mm 0.05 in1.3 mm
06:20 AM 53.1°F11.7°C 52.5°F11.4°C 98% 1.2 mph N1.9 kmh N 6.9 mph11.1 kmh 29.82 in1009.8 mb - 0.00 in0.0 mm 0.05 in1.3 mm
06:30 AM 53.1°F11.7°C 52.5°F11.4°C 98% 2.3 mph N3.7 kmh N 4.6 mph7.4 kmh 29.82 in1009.8 mb - 0.00 in0.0 mm 0.05 in1.3 mm
06:40 AM 53.1°F11.7°C 52.5°F11.4°C 98% 3.5 mph N5.6 kmh N 5.8 mph9.3 kmh 29.82 in1009.8 mb - 0.00 in0.0 mm 0.05 in1.3 mm
07:00 AM 53.1°F11.7°C 52.5°F11.4°C 98% 3.5 mph 5.6 kmh 5.8 mph9.3 kmh 29.82 in1009.8 mb - 0.00 in0.0 mm 0.05 in1.3 mm
07:10 AM 53.9°F12.2°C 53.4°F11.9°C 98% 3.5 mph N5.6 kmh N 8.1 mph13.0 kmh 29.82 in1009.8 mb - 0.00 in0.0 mm 0.05 in1.3 mm
07:20 AM 56.2°F13.4°C 55.6°F13.1°C 98% 4.6 mph N7.4 kmh N 8.1 mph13.0 kmh 29.82 in1009.8 mb - 0.00 in0.0 mm 0.05 in1.3 mm
07:30 AM 57.7°F14.3°C 56.0°F13.3°C 94% 4.6 mph N7.4 kmh N 5.8 mph9.3 kmh 29.82 in1009.8 mb - 0.00 in0.0 mm 0.05 in1.3 mm
07:40 AM 58.4°F14.7°C 55.2°F12.9°C 89% 6.9 mph N11.1 kmh N 11.5 mph18.5 kmh 29.82 in1009.8 mb - 0.00 in0.0 mm 0.05 in1.3 mm
07:50 AM 58.8°F14.9°C 54.0°F12.2°C 84% 8.1 mph NW13.0 kmh NW 10.4 mph16.7 kmh 29.82 in1009.8 mb - 0.00 in0.0 mm 0.05 in1.3 mm
08:00 AM 58.9°F14.9°C 53.4°F11.9°C 82% 8.1 mph NW13.0 kmh NW 12.7 mph20.4 kmh 29.82 in1009.8 mb - 0.00 in0.0 mm 0.05 in1.3 mm
08:10 AM 58.9°F14.9°C 52.7°F11.5°C 80% 6.9 mph NNW11.1 kmh NNW 9.2 mph14.8 kmh 29.82 in1009.8 mb - 0.00 in0.0 mm 0.05 in1.3 mm
08:20 AM 59.8°F15.4°C 53.3°F11.8°C 79% 6.9 mph NNW11.1 kmh NNW 12.7 mph20.4 kmh 29.82 in1009.8 mb - 0.00 in0.0 mm 0.05 in1.3 mm
08:30 AM 59.4°F15.2°C 50.7°F10.4°C 73% 9.2 mph NNW14.8 kmh NNW 11.5 mph18.5 kmh 29.82 in1009.8 mb - 0.00 in0.0 mm 0.05 in1.3 mm
08:40 AM 60.9°F16.1°C 51.4°F10.8°C 71% 8.1 mph NNW13.0 kmh NNW 12.7 mph20.4 kmh 29.82 in1009.8 mb - 0.00 in0.0 mm 0.05 in1.3 mm
08:50 AM 61.7°F16.5°C 51.8°F11.0°C 70% 6.9 mph N11.1 kmh N 12.7 mph20.4 kmh 29.82 in1009.8 mb - 0.00 in0.0 mm 0.05 in1.3 mm
09:00 AM 61.7°F16.5°C 50.6°F10.3°C 67% 8.1 mph NE13.0 kmh NE 12.7 mph20.4 kmh 29.82 in1009.8 mb - 0.00 in0.0 mm 0.05 in1.3 mm
09:10 AM 61.7°F16.5°C 51.0°F10.6°C 68% 9.2 mph NNW14.8 kmh NNW 12.7 mph20.4 kmh 29.82 in1009.8 mb - 0.00 in0.0 mm 0.05 in1.3 mm
09:20 AM 63.5°F17.5°C 51.5°F10.8°C 65% 6.9 mph N11.1 kmh N 11.5 mph18.5 kmh 29.82 in1009.8 mb - 0.00 in0.0 mm 0.05 in1.3 mm
09:30 AM 63.9°F17.7°C 51.1°F10.6°C 63% 8.1 mph NNW13.0 kmh NNW 10.4 mph16.7 kmh 29.82 in1009.8 mb - 0.00 in0.0 mm 0.05 in1.3 mm
09:40 AM 63.6°F17.6°C 50.3°F10.2°C 62% 9.2 mph NNE14.8 kmh NNE 12.7 mph20.4 kmh 29.82 in1009.8 mb - 0.00 in0.0 mm 0.05 in1.3 mm
09:50 AM 63.9°F17.7°C 50.1°F10.1°C 61% 5.8 mph N9.3 kmh N 9.2 mph14.8 kmh 29.82 in1009.8 mb - 0.00 in0.0 mm 0.05 in1.3 mm
10:00 AM 63.5°F17.5°C 49.4°F9.7°C 60% 10.4 mph NNW16.7 kmh NNW 15.0 mph24.1 kmh 29.82 in1009.8 mb - 0.00 in0.0 mm 0.05 in1.3 mm
10:10 AM 62.8°F17.1°C 49.5°F9.7°C 62% 10.4 mph N16.7 kmh N 12.7 mph20.4 kmh 29.82 in1009.8 mb - 0.00 in0.0 mm 0.05 in1.3 mm
10:20 AM 63.7°F17.6°C 50.4°F10.2°C 62% 9.2 mph N14.8 kmh N 15.0 mph24.1 kmh 29.82 in1009.8 mb - 0.00 in0.0 mm 0.05 in1.3 mm
10:30 AM 62.2°F16.8°C 49.5°F9.7°C 63% 8.1 mph NNE13.0 kmh NNE 13.8 mph22.2 kmh 29.82 in1009.8 mb - 0.00 in0.0 mm 0.05 in1.3 mm
10:40 AM 62.4°F16.9°C 49.7°F9.8°C 63% 8.1 mph N13.0 kmh N 8.1 mph13.0 kmh 29.82 in1009.8 mb - 0.00 in0.0 mm 0.05 in1.3 mm
10:50 AM 62.6°F17.0°C 49.4°F9.7°C 62% 4.6 mph N7.4 kmh N 8.1 mph13.0 kmh 29.82 in1009.8 mb - 0.00 in0.0 mm 0.05 in1.3 mm
11:00 AM 63.3°F17.4°C 50.1°F10.1°C 62% 6.9 mph NNW11.1 kmh NNW 9.2 mph14.8 kmh 29.82 in1009.8 mb - 0.00 in0.0 mm 0.05 in1.3 mm
11:10 AM 62.5°F16.9°C 48.4°F9.1°C 60% 9.2 mph N14.8 kmh N 10.4 mph16.7 kmh 29.82 in1009.8 mb - 0.00 in0.0 mm 0.05 in1.3 mm
11:20 AM 63.5°F17.5°C 48.9°F9.4°C 59% 8.1 mph N13.0 kmh N 12.7 mph20.4 kmh 29.82 in1009.8 mb - 0.00 in0.0 mm 0.05 in1.3 mm
11:30 AM 64.6°F18.1°C 49.5°F9.7°C 58% 6.9 mph NNW11.1 kmh NNW 11.5 mph18.5 kmh 29.82 in1009.8 mb - 0.00 in0.0 mm 0.05 in1.3 mm
11:40 AM 65.5°F18.6°C 49.8°F9.9°C 57% 6.9 mph N11.1 kmh N 12.7 mph20.4 kmh 29.82 in1009.8 mb - 0.00 in0.0 mm 0.05 in1.3 mm
11:50 AM 64.6°F18.1°C 49.0°F9.4°C 57% 9.2 mph N14.8 kmh N 11.5 mph18.5 kmh 29.82 in1009.8 mb - 0.00 in0.0 mm 0.05 in1.3 mm
12:00 PM 66.0°F18.9°C 50.3°F10.2°C 57% 8.1 mph NNW13.0 kmh NNW 12.7 mph20.4 kmh 29.82 in1009.8 mb - 0.00 in0.0 mm 0.05 in1.3 mm
12:10 PM 67.6°F19.8°C 50.8°F10.4°C 55% 8.1 mph N13.0 kmh N 12.7 mph20.4 kmh 29.82 in1009.8 mb - 0.00 in0.0 mm 0.05 in1.3 mm
12:20 PM 67.8°F19.9°C 50.1°F10.1°C 53% 8.1 mph N13.0 kmh N 12.7 mph20.4 kmh 29.82 in1009.8 mb - 0.00 in0.0 mm 0.05 in1.3 mm
12:30 PM 67.8°F19.9°C 49.5°F9.7°C 52% 9.2 mph N14.8 kmh N 15.0 mph24.1 kmh 29.82 in1009.8 mb - 0.00 in0.0 mm 0.05 in1.3 mm
12:40 PM 64.8°F18.2°C 47.8°F8.8°C 54% 6.9 mph N11.1 kmh N 11.5 mph18.5 kmh 29.82 in1009.8 mb - 0.00 in0.0 mm 0.05 in1.3 mm
12:50 PM 64.0°F17.8°C 47.5°F8.6°C 55% 9.2 mph N14.8 kmh N 12.7 mph20.4 kmh 29.82 in1009.8 mb - 0.00 in0.0 mm 0.05 in1.3 mm
01:00 PM 64.0°F17.8°C 47.5°F8.6°C 55% 8.1 mph N13.0 kmh N 12.7 mph20.4 kmh 29.82 in1009.8 mb - 0.00 in0.0 mm 0.05 in1.3 mm
01:10 PM 64.9°F18.3°C 47.4°F8.6°C 53% 10.4 mph N16.7 kmh N 15.0 mph24.1 kmh 29.82 in1009.8 mb - 0.00 in0.0 mm 0.05 in1.3 mm
01:20 PM 64.9°F18.3°C 47.4°F8.6°C 53% 6.9 mph N11.1 kmh N 20.7 mph33.3 kmh 29.82 in1009.8 mb - 0.00 in0.0 mm 0.05 in1.3 mm
01:30 PM 65.1°F18.4°C 48.0°F8.9°C 54% 9.2 mph N14.8 kmh N 12.7 mph20.4 kmh 29.82 in1009.8 mb - 0.00 in0.0 mm 0.05 in1.3 mm
01:40 PM 68.2°F20.1°C 50.4°F10.2°C 53% 10.4 mph N16.7 kmh N 17.3 mph27.8 kmh 29.82 in1009.8 mb - 0.00 in0.0 mm 0.05 in1.3 mm
01:50 PM 69.3°F20.7°C 49.8°F9.9°C 50% 10.4 mph N16.7 kmh N 18.4 mph29.6 kmh 29.82 in1009.8 mb - 0.00 in0.0 mm 0.05 in1.3 mm
02:00 PM 68.2°F20.1°C 48.8°F9.3°C 50% 12.7 mph N20.4 kmh N 15.0 mph24.1 kmh 29.82 in1009.8 mb - 0.00 in0.0 mm 0.05 in1.3 mm
02:10 PM 68.7°F20.4°C 49.3°F9.6°C 50% 10.4 mph NNW16.7 kmh NNW 17.3 mph27.8 kmh 29.82 in1009.8 mb - 0.00 in0.0 mm 0.05 in1.3 mm
02:20 PM 68.7°F20.4°C 49.3°F9.6°C 50% 12.7 mph NNW20.4 kmh NNW 19.6 mph31.5 kmh 29.82 in1009.8 mb - 0.00 in0.0 mm 0.05 in1.3 mm
02:30 PM 68.6°F20.3°C 49.2°F9.6°C 50% 8.1 mph N13.0 kmh N 10.4 mph16.7 kmh 29.82 in1009.8 mb - 0.00 in0.0 mm 0.05 in1.3 mm
02:40 PM 66.6°F19.2°C 46.8°F8.2°C 49% 10.4 mph N16.7 kmh N 12.7 mph20.4 kmh 29.82 in1009.8 mb - 0.00 in0.0 mm 0.05 in1.3 mm
03:00 PM 65.1°F18.4°C 48.5°F9.2°C 55% 8.1 mph NNW13.0 kmh NNW 15.0 mph24.1 kmh 29.82 in1009.8 mb - 0.00 in0.0 mm 0.05 in1.3 mm
03:10 PM 67.4°F19.7°C 49.2°F9.6°C 52% 9.2 mph N14.8 kmh N 16.1 mph25.9 kmh 29.82 in1009.8 mb - 0.00 in0.0 mm 0.05 in1.3 mm
03:20 PM 67.8°F19.9°C 49.5°F9.7°C 52% 11.5 mph NNE18.5 kmh NNE 17.3 mph27.8 kmh 29.82 in1009.8 mb - 0.00 in0.0 mm 0.05 in1.3 mm
03:30 PM 67.3°F19.6°C 48.5°F9.2°C 51% 10.4 mph N16.7 kmh N 15.0 mph24.1 kmh 29.82 in1009.8 mb - 0.00 in0.0 mm 0.05 in1.3 mm
03:40 PM 67.1°F19.5°C 48.4°F9.1°C 51% 9.2 mph N14.8 kmh N 17.3 mph27.8 kmh 29.82 in1009.8 mb - 0.00 in0.0 mm 0.05 in1.3 mm
03:50 PM 66.9°F19.4°C 48.2°F9.0°C 51% 11.5 mph N18.5 kmh N 19.6 mph31.5 kmh 29.82 in1009.8 mb - 0.00 in0.0 mm 0.05 in1.3 mm
04:00 PM 66.4°F19.1°C 48.2°F9.0°C 52% 10.4 mph N16.7 kmh N 17.3 mph27.8 kmh 29.82 in1009.8 mb - 0.00 in0.0 mm 0.05 in1.3 mm
04:10 PM 66.0°F18.9°C 48.4°F9.1°C 53% 9.2 mph N14.8 kmh N 10.4 mph16.7 kmh 29.82 in1009.8 mb - 0.00 in0.0 mm 0.05 in1.3 mm
04:20 PM 65.3°F18.5°C 47.7°F8.7°C 53% 12.7 mph N20.4 kmh N 13.8 mph22.2 kmh 29.82 in1009.8 mb - 0.00 in0.0 mm 0.05 in1.3 mm
04:30 PM 66.2°F19.0°C 48.5°F9.2°C 53% 8.1 mph NNW13.0 kmh NNW 12.7 mph20.4 kmh 29.82 in1009.8 mb - 0.00 in0.0 mm 0.05 in1.3 mm
05:00 PM 64.0°F17.8°C 47.1°F8.4°C 54% 9.2 mph N14.8 kmh N 17.3 mph27.8 kmh 29.82 in1009.8 mb - 0.00 in0.0 mm 0.05 in1.3 mm
05:20 PM 63.1°F17.3°C 46.7°F8.2°C 55% 12.7 mph N20.4 kmh N 19.6 mph31.5 kmh 29.80 in1009.1 mb - 0.00 in0.0 mm 0.05 in1.3 mm
05:40 PM 62.2°F16.8°C 45.9°F7.7°C 55% 8.1 mph N13.0 kmh N 11.5 mph18.5 kmh 29.80 in1009.1 mb - 0.00 in0.0 mm 0.05 in1.3 mm
05:50 PM 62.2°F16.8°C 46.3°F7.9°C 56% 9.2 mph N14.8 kmh N 17.3 mph27.8 kmh 29.80 in1009.1 mb - 0.00 in0.0 mm 0.05 in1.3 mm
06:00 PM 61.9°F16.6°C 45.5°F7.5°C 55% 9.2 mph NNW14.8 kmh NNW 17.3 mph27.8 kmh 29.80 in1009.1 mb - 0.00 in0.0 mm 0.05 in1.3 mm
06:10 PM 62.0°F16.7°C 45.7°F7.6°C 55% 9.2 mph N14.8 kmh N 12.7 mph20.4 kmh 29.80 in1009.1 mb - 0.00 in0.0 mm 0.05 in1.3 mm
06:20 PM 61.3°F16.3°C 45.0°F7.2°C 55% 9.2 mph N14.8 kmh N 12.7 mph20.4 kmh 29.82 in1009.8 mb - 0.00 in0.0 mm 0.05 in1.3 mm
06:30 PM 60.4°F15.8°C 45.0°F7.2°C 57% 8.1 mph N13.0 kmh N 10.4 mph16.7 kmh 29.82 in1009.8 mb - 0.00 in0.0 mm 0.05 in1.3 mm
06:40 PM 59.9°F15.5°C 44.6°F7.0°C 57% 10.4 mph N16.7 kmh N 12.7 mph20.4 kmh 29.82 in1009.8 mb - 0.00 in0.0 mm 0.05 in1.3 mm
06:50 PM 59.4°F15.2°C 45.0°F7.2°C 59% 6.9 mph NNE11.1 kmh NNE 10.4 mph16.7 kmh 29.82 in1009.8 mb - 0.00 in0.0 mm 0.05 in1.3 mm
07:00 PM 59.2°F15.1°C 45.3°F7.4°C 60% 9.2 mph N14.8 kmh N 12.7 mph20.4 kmh 29.82 in1009.8 mb - 0.00 in0.0 mm 0.05 in1.3 mm
07:10 PM 58.8°F14.9°C 45.4°F7.4°C 61% 8.1 mph NNW13.0 kmh NNW 15.0 mph24.1 kmh 29.82 in1009.8 mb - 0.00 in0.0 mm 0.05 in1.3 mm
07:20 PM 58.8°F14.9°C 45.8°F7.7°C 62% 5.8 mph N9.3 kmh N 8.1 mph13.0 kmh 29.82 in1009.8 mb - 0.00 in0.0 mm 0.05 in1.3 mm
07:30 PM 58.3°F14.6°C 45.7°F7.6°C 63% 6.9 mph N11.1 kmh N 8.1 mph13.0 kmh 29.86 in1011.2 mb - 0.00 in0.0 mm 0.05 in1.3 mm
07:40 PM 57.7°F14.3°C 46.0°F7.8°C 65% 5.8 mph N9.3 kmh N 8.1 mph13.0 kmh 29.86 in1011.2 mb - 0.00 in0.0 mm 0.05 in1.3 mm
07:50 PM 57.0°F13.9°C 46.2°F7.9°C 67% 8.1 mph N13.0 kmh N 11.5 mph18.5 kmh 29.86 in1011.2 mb - 0.00 in0.0 mm 0.05 in1.3 mm
08:00 PM 56.6°F13.7°C 46.6°F8.1°C 69% 5.8 mph N9.3 kmh N 8.1 mph13.0 kmh 29.86 in1011.2 mb - 0.00 in0.0 mm 0.05 in1.3 mm
08:10 PM 56.2°F13.4°C 46.5°F8.1°C 70% 4.6 mph 7.4 kmh 8.1 mph13.0 kmh 29.86 in1011.2 mb - 0.00 in0.0 mm 0.05 in1.3 mm
08:20 PM 55.9°F13.3°C 46.6°F8.1°C 71% 4.6 mph N7.4 kmh N 5.8 mph9.3 kmh 29.86 in1011.2 mb - 0.00 in0.0 mm 0.05 in1.3 mm
08:30 PM 55.4°F13.0°C 46.9°F8.3°C 73% 3.5 mph N5.6 kmh N 5.8 mph9.3 kmh 29.86 in1011.2 mb - 0.00 in0.0 mm 0.05 in1.3 mm
08:40 PM 55.4°F13.0°C 46.9°F8.3°C 73% 3.5 mph N5.6 kmh N 5.8 mph9.3 kmh 29.86 in1011.2 mb - 0.00 in0.0 mm 0.05 in1.3 mm
08:50 PM 55.2°F12.9°C 47.1°F8.4°C 74% 2.3 mph N3.7 kmh N 3.5 mph5.6 kmh 29.86 in1011.2 mb - 0.00 in0.0 mm 0.05 in1.3 mm
09:00 PM 54.9°F12.7°C 47.1°F8.4°C 75% 2.3 mph N3.7 kmh N 3.5 mph5.6 kmh 29.86 in1011.2 mb - 0.00 in0.0 mm 0.05 in1.3 mm
09:10 PM 54.5°F12.5°C 47.1°F8.4°C 76% 2.3 mph NNE3.7 kmh NNE 3.5 mph5.6 kmh 29.86 in1011.2 mb - 0.00 in0.0 mm 0.05 in1.3 mm
09:20 PM 54.2°F12.3°C 47.2°F8.4°C 77% Calm Calm 3.5 mph5.6 kmh 29.86 in1011.2 mb - 0.00 in0.0 mm 0.05 in1.3 mm
09:30 PM 54.0°F12.2°C 47.3°F8.5°C 78% Calm Calm 3.5 mph5.6 kmh 29.86 in1011.2 mb - 0.00 in0.0 mm 0.05 in1.3 mm
09:40 PM 54.1°F12.3°C 48.1°F8.9°C 80% 2.3 mph N3.7 kmh N 5.8 mph9.3 kmh 29.86 in1011.2 mb - 0.00 in0.0 mm 0.05 in1.3 mm
09:50 PM 54.5°F12.5°C 48.5°F9.2°C 80% 3.5 mph N5.6 kmh N 5.8 mph9.3 kmh 29.86 in1011.2 mb - 0.00 in0.0 mm 0.05 in1.3 mm
10:00 PM 54.7°F12.6°C 48.3°F9.1°C 79% 3.5 mph N5.6 kmh N 3.5 mph5.6 kmh 29.86 in1011.2 mb - 0.00 in0.0 mm 0.05 in1.3 mm
10:10 PM 54.7°F12.6°C 47.9°F8.8°C 78% 4.6 mph N7.4 kmh N 8.1 mph13.0 kmh 29.86 in1011.2 mb - 0.00 in0.0 mm 0.05 in1.3 mm
10:20 PM 54.4°F12.4°C 47.7°F8.7°C 78% 2.3 mph N3.7 kmh N 5.8 mph9.3 kmh 29.86 in1011.2 mb - 0.00 in0.0 mm 0.05 in1.3 mm
10:30 PM 54.0°F12.2°C 47.3°F8.5°C 78% 3.5 mph N5.6 kmh N 5.8 mph9.3 kmh 29.82 in1009.8 mb - 0.00 in0.0 mm 0.05 in1.3 mm
10:50 PM 53.4°F11.9°C 47.4°F8.6°C 80% 5.8 mph N9.3 kmh N 5.8 mph9.3 kmh 29.86 in1011.2 mb - 0.00 in0.0 mm 0.05 in1.3 mm
11:00 PM 53.2°F11.8°C 47.6°F8.7°C 81% 3.5 mph N5.6 kmh N 5.8 mph9.3 kmh 29.86 in1011.2 mb - 0.00 in0.0 mm 0.30 in7.6 mm
11:10 PM 52.9°F11.6°C 47.6°F8.7°C 82% 4.6 mph N7.4 kmh N 8.1 mph13.0 kmh 29.86 in1011.2 mb - 0.00 in0.0 mm 0.30 in7.6 mm
11:20 PM 52.9°F11.6°C 47.5°F8.6°C 82% 5.8 mph N9.3 kmh N 6.9 mph11.1 kmh 29.86 in1011.2 mb - 0.00 in0.0 mm 0.30 in7.6 mm
11:30 PM 53.1°F11.7°C 48.0°F8.9°C 83% 4.6 mph N7.4 kmh N 5.8 mph9.3 kmh 29.86 in1011.2 mb - 0.00 in0.0 mm 0.30 in7.6 mm
11:40 PM 53.1°F11.7°C 48.0°F8.9°C 83% 3.5 mph N5.6 kmh N 3.5 mph5.6 kmh 29.86 in1011.2 mb - 0.00 in0.0 mm 0.30 in7.6 mm